Main page
METAR-TAF:

Airports :

Frankfurt, Germany

Frankfurt Airport

latitude: 50-03N, longitude: 008-36E, elevation: 111 m

Current weather observation

The report was made 18 minutes ago, at 11:20 UTC
Wind 6 kt from variable directions
Temperature 14°C
Humidity 33%
Pressure 1028 hPa
Visibility 10 km or more
no clouds below 1500 m and no cumulonimbus

METAR: EDDF 041120Z VRB06KT CAVOK 14/M02 Q1028 NOSIG

Time: 13:38 (11:38 UTC)

Forecast

The report was made 6 hours and 38 minutes ago, at 05:00 UTC
Forecast valid from 04 at 06 UTC to 05 at 12 UTC
Wind 2 kt from variable directions
Visibility 10 km or more
no clouds below 1500 m and no cumulonimbus
Becoming
from 04 at 06 UTC to 04 at 09 UTC
Wind 6 kt from the North/Northeast
Becoming
from 05 at 08 UTC to 05 at 11 UTC
Wind 9 kt from the East

TAF: EDDF 040500Z 0406/0512 VRB02KT CAVOK BECMG 0406/0409 03006KT BECMG 0508/0511 09009KT

METAR-TAF

Weather observations and forecasts of more than 4000 airports (METAR and TAF reports).

The available stations are represented by yellow and red dots on the map.

Hover mouse over dot to see the name of the station.

Then click to see weather observations and forecasts.

To change the map : click on the green buttons with a black cross to zoom in, on the green button with a dash to zoom out, or on the green arrows for adjacent maps.


METAR-TAF: